createdAt,value
2023-01-05T00:00:43.317Z,1001.25
2023-01-05T00:01:43.438Z,1001.28
2023-01-05T00:02:43.619Z,1001.24
2023-01-05T00:03:43.629Z,1001.26
2023-01-05T00:04:43.776Z,1001.23
2023-01-05T00:05:43.898Z,1001.29
2023-01-05T00:06:44.011Z,1001.30
2023-01-05T00:07:44.154Z,1001.27
2023-01-05T00:08:44.289Z,1001.29
2023-01-05T00:09:44.402Z,1001.27
2023-01-05T00:10:44.522Z,1001.26
2023-01-05T00:11:44.644Z,1001.37
2023-01-05T00:12:44.800Z,1001.37
2023-01-05T00:13:44.906Z,1001.36
2023-01-05T00:14:45.081Z,1001.33
2023-01-05T00:15:45.097Z,1001.36
2023-01-05T00:16:45.286Z,1001.43
2023-01-05T00:17:45.344Z,1001.43
2023-01-05T00:18:45.470Z,1001.39
2023-01-05T00:19:45.582Z,1001.38
2023-01-05T00:20:45.709Z,1001.39
2023-01-05T00:21:45.889Z,1001.40
2023-01-05T00:22:46.024Z,1001.44
2023-01-05T00:23:46.148Z,1001.44
2023-01-05T00:24:46.289Z,1001.43
2023-01-05T00:25:46.412Z,1001.44
2023-01-05T00:26:46.550Z,1001.37
2023-01-05T00:27:46.694Z,1001.38
2023-01-05T00:28:46.819Z,1001.45
2023-01-05T00:29:46.940Z,1001.43
2023-01-05T00:30:47.100Z,1001.42
2023-01-05T00:31:47.298Z,1001.35
2023-01-05T00:32:47.362Z,1001.48
2023-01-05T00:33:47.480Z,1001.48
2023-01-05T00:34:47.599Z,1001.42
2023-01-05T00:35:47.720Z,1001.44
2023-01-05T00:36:47.834Z,1001.35
2023-01-05T00:37:47.970Z,1001.52
2023-01-05T00:38:48.089Z,1001.48
2023-01-05T00:39:48.217Z,1001.50
2023-01-05T00:40:48.351Z,1001.46
2023-01-05T00:41:48.500Z,1001.56
2023-01-05T00:42:48.688Z,1001.41
2023-01-05T00:43:48.790Z,1001.44
2023-01-05T00:44:48.914Z,1001.50
2023-01-05T00:45:49.116Z,1001.44
2023-01-05T00:46:49.174Z,1001.47
2023-01-05T00:47:49.310Z,1001.43
2023-01-05T00:48:49.484Z,1001.45
2023-01-05T00:49:49.623Z,1001.32
2023-01-05T00:50:49.744Z,1001.43
2023-01-05T00:51:49.883Z,1001.35
2023-01-05T00:52:50.028Z,1001.39
2023-01-05T00:53:50.119Z,1001.34
2023-01-05T00:54:50.244Z,1001.50
2023-01-05T00:55:50.367Z,1001.44
2023-01-05T00:56:50.493Z,1001.45
2023-01-05T00:57:50.628Z,1001.44
2023-01-05T00:58:50.758Z,1001.31
2023-01-05T00:59:50.958Z,1001.36
2023-01-05T01:00:51.015Z,1001.44
2023-01-05T01:01:51.220Z,1001.34
2023-01-05T01:02:51.252Z,1001.29
2023-01-05T01:03:51.382Z,1001.42
2023-01-05T01:04:51.574Z,1001.27
2023-01-05T01:05:51.562Z,1001.37
2023-01-05T01:06:51.691Z,1001.39
2023-01-05T01:07:51.836Z,1001.26
2023-01-05T01:08:51.959Z,1001.38
2023-01-05T01:09:52.081Z,1001.42
2023-01-05T01:10:52.211Z,1001.39
2023-01-05T01:11:57.500Z,1001.39
2023-01-05T01:12:52.525Z,1001.38
2023-01-05T01:13:52.633Z,1001.38
2023-01-05T01:14:52.815Z,1001.39
2023-01-05T01:15:52.913Z,1001.44
2023-01-05T01:16:53.053Z,1001.42
2023-01-05T01:17:53.186Z,1001.38
2023-01-05T01:18:53.774Z,1001.45
2023-01-05T01:19:53.375Z,1001.41
2023-01-05T01:20:53.510Z,1001.37
2023-01-05T01:21:53.625Z,1001.42
2023-01-05T01:22:53.822Z,1001.53
2023-01-05T01:23:53.855Z,1001.40
2023-01-05T01:24:54.374Z,1001.44
2023-01-05T01:25:54.032Z,1001.45
2023-01-05T01:26:54.156Z,1001.52
2023-01-05T01:27:54.283Z,1001.55
2023-01-05T01:28:54.406Z,1001.55
2023-01-05T01:29:54.510Z,1001.46
2023-01-05T01:30:54.699Z,1001.46
2023-01-05T01:31:54.724Z,1001.40
2023-01-05T01:32:54.854Z,1001.44
2023-01-05T01:33:54.969Z,1001.38
2023-01-05T01:34:55.125Z,1001.39
2023-01-05T01:35:55.214Z,1001.49
2023-01-05T01:36:55.331Z,1001.35
2023-01-05T01:37:55.487Z,1001.32
2023-01-05T01:38:55.596Z,1001.36
2023-01-05T01:39:55.705Z,1001.26
2023-01-05T01:40:55.817Z,1001.33
2023-01-05T01:41:55.942Z,1001.29
2023-01-05T01:42:56.069Z,1001.33
2023-01-05T01:43:56.201Z,1001.44
2023-01-05T01:44:56.309Z,1001.27
2023-01-05T01:45:56.444Z,1001.36
2023-01-05T01:46:56.584Z,1001.44
2023-01-05T01:47:56.709Z,1001.35
2023-01-05T01:48:56.839Z,1001.28
2023-01-05T01:49:56.959Z,1001.45
2023-01-05T01:50:57.086Z,1001.35
2023-01-05T01:51:57.209Z,1001.36
2023-01-05T01:52:57.356Z,1001.45
2023-01-05T01:53:57.461Z,1001.34
2023-01-05T01:54:57.605Z,1001.43
2023-01-05T01:55:57.722Z,1001.35
2023-01-05T01:56:57.858Z,1001.27
2023-01-05T01:57:58.033Z,1001.28
2023-01-05T01:58:58.177Z,1001.37
2023-01-05T01:59:58.302Z,1001.32
2023-01-05T02:00:58.470Z,1001.31
2023-01-05T02:01:58.595Z,1001.39
2023-01-05T02:02:58.654Z,1001.38
2023-01-05T02:03:58.775Z,1001.33
2023-01-05T02:04:58.954Z,1001.35
2023-01-05T02:05:58.976Z,1001.40
2023-01-05T02:06:59.117Z,1001.43
2023-01-05T02:07:59.263Z,1001.42
2023-01-05T02:08:59.376Z,1001.29
2023-01-05T02:09:59.491Z,1001.34
2023-01-05T02:10:59.604Z,1001.43
2023-01-05T02:11:59.735Z,1001.39
2023-01-05T02:12:59.854Z,1001.25
2023-01-05T02:13:59.993Z,1001.36
2023-01-05T02:15:00.133Z,1001.34
2023-01-05T02:16:00.225Z,1001.38
2023-01-05T02:17:00.418Z,1001.35
2023-01-05T02:18:00.396Z,1001.30
2023-01-05T02:19:00.519Z,1001.28
2023-01-05T02:20:00.620Z,1001.35
2023-01-05T02:21:00.744Z,1001.31
2023-01-05T02:22:00.866Z,1001.29
2023-01-05T02:23:01.025Z,1001.26
2023-01-05T02:24:01.012Z,1001.21
2023-01-05T02:25:01.131Z,1001.25
2023-01-05T02:26:01.247Z,1001.24
2023-01-05T02:27:01.355Z,1001.18
2023-01-05T02:28:01.486Z,1001.22
2023-01-05T02:29:01.603Z,1001.22
2023-01-05T02:30:01.730Z,1001.10
2023-01-05T02:31:01.876Z,1001.28
2023-01-05T02:32:01.989Z,1001.27
2023-01-05T02:33:02.112Z,1001.15
2023-01-05T02:34:02.211Z,1001.30
2023-01-05T02:35:02.327Z,1000.98
2023-01-05T02:36:02.435Z,1001.25
2023-01-05T02:37:02.548Z,1001.20
2023-01-05T02:38:02.692Z,1001.18
2023-01-05T02:39:02.798Z,1001.28
2023-01-05T02:40:02.919Z,1001.19
2023-01-05T02:41:03.007Z,1001.25
2023-01-05T02:42:03.116Z,1001.11
2023-01-05T02:43:03.264Z,1001.21
2023-01-05T02:44:03.357Z,1001.29
2023-01-05T02:45:03.467Z,1001.21
2023-01-05T02:46:03.674Z,1001.09
2023-01-05T02:47:03.729Z,1001.13
2023-01-05T02:48:03.848Z,1001.14
2023-01-05T02:49:03.957Z,1001.10
2023-01-05T02:50:04.063Z,1001.13
2023-01-05T02:51:04.186Z,1001.17
2023-01-05T02:52:04.307Z,1001.16
2023-01-05T02:53:04.462Z,1001.22
2023-01-05T02:54:04.574Z,1001.10
2023-01-05T02:55:04.687Z,1001.22
2023-01-05T02:56:04.811Z,1001.22
2023-01-05T02:57:04.928Z,1001.15
2023-01-05T02:58:05.050Z,1001.24
2023-01-05T02:59:05.154Z,1001.08
2023-01-05T03:00:05.256Z,1001.14
2023-01-05T03:01:05.511Z,1001.19
2023-01-05T03:02:05.717Z,1001.15
2023-01-05T03:03:06.056Z,1001.23
2023-01-05T03:04:05.723Z,1001.19
2023-01-05T03:05:05.828Z,1001.23
2023-01-05T03:06:05.947Z,1001.27
2023-01-05T03:07:06.083Z,1001.27
2023-01-05T03:08:06.202Z,1001.31
2023-01-05T03:09:06.326Z,1001.22
2023-01-05T03:10:06.430Z,1000.95
2023-01-05T03:11:06.651Z,1001.15
2023-01-05T03:12:06.665Z,1001.15
2023-01-05T03:13:06.794Z,1001.18
2023-01-05T03:14:06.896Z,1001.17
2023-01-05T03:15:07.004Z,1001.20
2023-01-05T03:16:07.170Z,1001.35
2023-01-05T03:17:07.291Z,1001.16
2023-01-05T03:18:07.399Z,1001.20
2023-01-05T03:19:07.511Z,1001.14
2023-01-05T03:20:07.619Z,1001.20
2023-01-05T03:21:07.736Z,1001.26
2023-01-05T03:22:07.851Z,1001.23
2023-01-05T03:23:07.979Z,1001.19
2023-01-05T03:24:08.088Z,1001.27
2023-01-05T03:25:08.203Z,1001.25
2023-01-05T03:26:08.317Z,1001.18
2023-01-05T03:27:08.429Z,1001.26
2023-01-05T03:28:08.540Z,1001.28
2023-01-05T03:29:08.651Z,1001.05
2023-01-05T03:30:08.771Z,1001.20
2023-01-05T03:31:08.947Z,1001.23
2023-01-05T03:32:08.957Z,1001.24
2023-01-05T03:33:09.186Z,1001.27
2023-01-05T03:34:09.161Z,1001.15
2023-01-05T03:35:09.298Z,1001.26
2023-01-05T03:36:09.416Z,1001.17
2023-01-05T03:37:09.535Z,1001.22
2023-01-05T03:38:13.407Z,1001.18
2023-01-05T03:39:10.756Z,1001.17
2023-01-05T03:40:09.873Z,1001.14
2023-01-05T03:41:09.990Z,1001.24
2023-01-05T03:42:10.132Z,1001.12
2023-01-05T03:43:10.265Z,1001.20
2023-01-05T03:44:10.365Z,1001.18
2023-01-05T03:45:10.484Z,1001.15
2023-01-05T03:46:10.652Z,1001.31
2023-01-05T03:47:10.679Z,1001.17
2023-01-05T03:48:10.814Z,1001.12
2023-01-05T03:49:10.933Z,1001.29
2023-01-05T03:50:11.045Z,1001.16
2023-01-05T03:51:11.176Z,1001.18
2023-01-05T03:52:11.280Z,1001.25
2023-01-05T03:53:11.419Z,1001.47
2023-01-05T03:54:11.526Z,1001.44
2023-01-05T03:55:11.647Z,1001.27
2023-01-05T03:56:11.748Z,1001.40
2023-01-05T03:57:11.865Z,1001.27
2023-01-05T03:58:11.993Z,1001.29
2023-01-05T03:59:12.103Z,1001.40
2023-01-05T04:00:12.222Z,1001.25
2023-01-05T04:01:12.616Z,1001.30
2023-01-05T04:02:12.585Z,1001.32
2023-01-05T04:03:12.806Z,1001.40
2023-01-05T04:04:12.733Z,1001.37
2023-01-05T04:05:12.849Z,1001.43
2023-01-05T04:06:12.948Z,1001.50
2023-01-05T04:07:13.129Z,1001.43
2023-01-05T04:08:13.127Z,1001.29
2023-01-05T04:09:13.276Z,1001.47
2023-01-05T04:10:13.391Z,1001.40
2023-01-05T04:11:13.511Z,1001.45
2023-01-05T04:12:13.619Z,1001.48
2023-01-05T04:13:13.739Z,1001.43
2023-01-05T04:14:13.868Z,1001.52
2023-01-05T04:15:13.973Z,1001.61
2023-01-05T04:16:14.101Z,1001.52
2023-01-05T04:17:14.222Z,1001.56
2023-01-05T04:18:14.330Z,1001.58
2023-01-05T04:19:14.450Z,1001.54
2023-01-05T04:20:14.547Z,1001.43
2023-01-05T04:21:14.661Z,1001.51
2023-01-05T04:22:14.754Z,1001.62
2023-01-05T04:23:14.866Z,1001.42
2023-01-05T04:24:14.968Z,1001.45
2023-01-05T04:25:15.078Z,1001.55
2023-01-05T04:26:15.193Z,1001.56
2023-01-05T04:27:15.325Z,1001.61
2023-01-05T04:28:15.458Z,1001.52
2023-01-05T04:29:15.554Z,1001.59
2023-01-05T04:30:15.660Z,1001.47
2023-01-05T04:31:15.898Z,1001.55
2023-01-05T04:32:15.982Z,1001.63
2023-01-05T04:33:16.151Z,1001.64
2023-01-05T04:34:16.179Z,1001.57
2023-01-05T04:35:16.330Z,1001.63
2023-01-05T04:36:16.472Z,1001.52
2023-01-05T04:37:16.644Z,1001.77
2023-01-05T04:38:16.763Z,1001.65
2023-01-05T04:39:16.877Z,1001.78
2023-01-05T04:40:17.017Z,1001.72
2023-01-05T04:41:17.134Z,1001.70
2023-01-05T04:42:17.245Z,1001.74
2023-01-05T04:43:17.373Z,1001.71
2023-01-05T04:44:17.509Z,1001.78
2023-01-05T04:45:17.631Z,1001.74
2023-01-05T04:46:17.759Z,1001.80
2023-01-05T04:47:17.786Z,1001.77
2023-01-05T04:48:17.932Z,1001.82
2023-01-05T04:49:18.034Z,1001.80
2023-01-05T04:50:18.168Z,1001.78
2023-01-05T04:51:18.293Z,1001.84
2023-01-05T04:52:18.395Z,1001.89
2023-01-05T04:53:18.519Z,1001.88
2023-01-05T04:54:18.623Z,1001.96
2023-01-05T04:55:18.746Z,1002.00
2023-01-05T04:56:18.850Z,1001.91
2023-01-05T04:57:18.947Z,1001.97
2023-01-05T04:58:19.061Z,1002.04
2023-01-05T04:59:19.169Z,1001.98
2023-01-05T05:00:19.284Z,1002.03
2023-01-05T05:01:19.465Z,1002.00
2023-01-05T05:02:19.689Z,1001.93
2023-01-05T05:03:19.714Z,1001.96
2023-01-05T05:04:19.739Z,1001.92
2023-01-05T05:05:19.915Z,1001.90
2023-01-05T05:06:19.965Z,1001.87
2023-01-05T05:07:20.059Z,1001.93
2023-01-05T05:08:20.175Z,1001.92
2023-01-05T05:09:20.288Z,1001.91
2023-01-05T05:10:20.419Z,1001.90
2023-01-05T05:11:20.574Z,1001.97
2023-01-05T05:12:20.702Z,1002.00
2023-01-05T05:13:20.826Z,1001.98
2023-01-05T05:14:20.931Z,1002.06
2023-01-05T05:15:21.097Z,1002.05
2023-01-05T05:16:21.230Z,1002.04
2023-01-05T05:17:21.256Z,1001.97
2023-01-05T05:18:21.390Z,1002.07
2023-01-05T05:19:21.507Z,1002.10
2023-01-05T05:20:21.632Z,1002.01
2023-01-05T05:21:21.744Z,1002.05
2023-01-05T05:22:21.874Z,1002.04
2023-01-05T05:23:22.011Z,1002.08
2023-01-05T05:24:22.122Z,1002.09
2023-01-05T05:25:22.253Z,1002.14
2023-01-05T05:26:22.375Z,1002.17
2023-01-05T05:27:22.523Z,1002.16
2023-01-05T05:28:22.654Z,1002.14
2023-01-05T05:29:22.775Z,1002.05
2023-01-05T05:30:22.913Z,1002.02
2023-01-05T05:31:23.109Z,1002.10
2023-01-05T05:32:23.123Z,1002.02
2023-01-05T05:33:23.240Z,1002.02
2023-01-05T05:34:23.362Z,1002.04
2023-01-05T05:35:23.482Z,1002.07
2023-01-05T05:36:23.627Z,1001.99
2023-01-05T05:37:23.737Z,1002.08
2023-01-05T05:38:23.873Z,1001.95
2023-01-05T05:39:23.988Z,1002.04
2023-01-05T05:40:24.154Z,1002.10
2023-01-05T05:41:24.250Z,1002.12
2023-01-05T05:42:24.375Z,1002.13
2023-01-05T05:43:24.509Z,1002.15
2023-01-05T05:44:24.642Z,1002.06
2023-01-05T05:45:24.761Z,1002.04
2023-01-05T05:46:24.897Z,1002.07
2023-01-05T05:47:25.013Z,1002.11
2023-01-05T05:48:25.123Z,1001.96
2023-01-05T05:49:25.266Z,1001.94
2023-01-05T05:50:25.407Z,1001.94
2023-01-05T05:51:25.534Z,1001.89
2023-01-05T05:52:25.698Z,1001.99
2023-01-05T05:53:25.802Z,1002.09
2023-01-05T05:54:25.933Z,1002.16
2023-01-05T05:55:26.067Z,1002.15
2023-01-05T05:56:26.184Z,1002.13
2023-01-05T05:57:26.316Z,1002.13
2023-01-05T05:58:26.483Z,1002.10
2023-01-05T05:59:26.594Z,1002.10
2023-01-05T06:00:26.756Z,1002.21
2023-01-05T06:01:26.941Z,1002.34
2023-01-05T06:02:26.998Z,1002.29
2023-01-05T06:03:27.148Z,1002.25
2023-01-05T06:04:27.253Z,1002.47
2023-01-05T06:05:27.376Z,1002.34
2023-01-05T06:06:27.508Z,1002.39
2023-01-05T06:07:27.624Z,1002.38
2023-01-05T06:08:27.756Z,1002.43
2023-01-05T06:09:27.895Z,1002.42
2023-01-05T06:10:28.021Z,1002.46
2023-01-05T06:11:28.075Z,1002.43
2023-01-05T06:12:28.222Z,1002.48
2023-01-05T06:13:28.392Z,1002.45
2023-01-05T06:14:28.527Z,1002.51
2023-01-05T06:15:28.650Z,1002.58
2023-01-05T06:16:28.840Z,1002.60
2023-01-05T06:17:28.843Z,1002.68
2023-01-05T06:18:28.981Z,1002.71
2023-01-05T06:19:29.104Z,1002.67
2023-01-05T06:20:29.224Z,1002.64
2023-01-05T06:21:29.340Z,1002.65
2023-01-05T06:22:29.483Z,1002.66
2023-01-05T06:23:29.620Z,1002.74
2023-01-05T06:24:29.749Z,1002.70
2023-01-05T06:25:29.864Z,1002.81
2023-01-05T06:26:29.977Z,1002.90
2023-01-05T06:27:30.138Z,1002.68
2023-01-05T06:28:30.281Z,1002.65
2023-01-05T06:29:30.403Z,1002.62
2023-01-05T06:30:30.525Z,1002.62
2023-01-05T06:31:30.672Z,1002.61
2023-01-05T06:32:30.816Z,1002.59
2023-01-05T06:33:30.946Z,1002.64
2023-01-05T06:34:31.077Z,1002.34
2023-01-05T06:35:31.190Z,1002.69
2023-01-05T06:36:31.338Z,1002.64
2023-01-05T06:37:31.464Z,1002.77
2023-01-05T06:38:31.648Z,1002.74
2023-01-05T06:39:31.666Z,1002.80
2023-01-05T06:40:31.750Z,1002.75
2023-01-05T06:41:32.185Z,1002.81
2023-01-05T06:42:31.957Z,1002.91
2023-01-05T06:43:32.113Z,1002.81
2023-01-05T06:44:32.254Z,1002.87
2023-01-05T06:45:32.413Z,1002.84
2023-01-05T06:46:32.564Z,1002.88
2023-01-05T06:47:32.707Z,1002.86
2023-01-05T06:48:32.914Z,1002.88
2023-01-05T06:49:32.959Z,1002.92
2023-01-05T06:50:33.083Z,1002.91
2023-01-05T06:51:33.220Z,1003.02
2023-01-05T06:52:33.353Z,1003.04
2023-01-05T06:53:33.532Z,1003.10
2023-01-05T06:54:33.662Z,1002.95
2023-01-05T06:55:33.807Z,1003.10
2023-01-05T06:56:33.961Z,1003.08
2023-01-05T06:57:34.066Z,1003.05
2023-01-05T06:58:34.226Z,1003.09
2023-01-05T06:59:34.359Z,1003.04
2023-01-05T07:00:34.642Z,1003.18
2023-01-05T07:01:34.655Z,1003.08
2023-01-05T07:02:34.686Z,1003.08
2023-01-05T07:03:34.943Z,1003.13
2023-01-05T07:04:34.980Z,1002.96
2023-01-05T07:05:35.115Z,1003.11
2023-01-05T07:06:35.259Z,1003.14
2023-01-05T07:07:35.383Z,1003.13
2023-01-05T07:08:35.752Z,1003.17
2023-01-05T07:09:36.247Z,1003.21
2023-01-05T07:10:35.824Z,1003.23
2023-01-05T07:11:35.943Z,1003.12
2023-01-05T07:12:36.081Z,1003.22
2023-01-05T07:13:37.177Z,1003.18
2023-01-05T07:14:36.334Z,1003.12
2023-01-05T07:15:36.457Z,1003.20
2023-01-05T07:16:36.639Z,1003.19
2023-01-05T07:17:36.670Z,1003.13
2023-01-05T07:18:36.830Z,1003.20
2023-01-05T07:19:36.977Z,1003.21
2023-01-05T07:20:37.107Z,1003.23
2023-01-05T07:21:37.239Z,1003.24
2023-01-05T07:22:37.923Z,1003.27
2023-01-05T07:23:37.573Z,1003.15
2023-01-05T07:24:37.621Z,1003.30
2023-01-05T07:25:37.746Z,1003.29
2023-01-05T07:26:37.867Z,1003.28
2023-01-05T07:27:38.004Z,1003.39
2023-01-05T07:28:38.151Z,1003.31
2023-01-05T07:29:38.274Z,1003.44
2023-01-05T07:30:38.423Z,1003.26
2023-01-05T07:31:38.616Z,1003.32
2023-01-05T07:32:38.669Z,1003.28
2023-01-05T07:33:40.235Z,1003.32
2023-01-05T07:34:38.874Z,1003.33
2023-01-05T07:35:38.993Z,1003.40
2023-01-05T07:36:39.142Z,1003.31
2023-01-05T07:37:39.280Z,1003.27
2023-01-05T07:38:39.447Z,1003.36
2023-01-05T07:39:39.454Z,1003.42
2023-01-05T07:40:39.588Z,1003.40
2023-01-05T07:41:39.699Z,1003.45
2023-01-05T07:42:39.834Z,1003.48
2023-01-05T07:43:39.985Z,1003.54
2023-01-05T07:44:40.131Z,1003.57
2023-01-05T07:45:40.315Z,1003.52
2023-01-05T07:46:40.372Z,1003.55
2023-01-05T07:47:40.492Z,1003.57
2023-01-05T07:48:40.660Z,1003.58
2023-01-05T07:49:40.774Z,1003.46
2023-01-05T07:50:40.904Z,1003.64
2023-01-05T07:51:41.026Z,1003.59
2023-01-05T07:52:41.193Z,1003.60
2023-01-05T07:53:44.345Z,1003.74
2023-01-05T07:54:41.431Z,1003.64
2023-01-05T07:55:41.548Z,1003.67
2023-01-05T07:56:41.684Z,1003.69
2023-01-05T07:57:41.828Z,1003.74
2023-01-05T07:58:41.995Z,1003.71
2023-01-05T07:59:42.002Z,1003.53
2023-01-05T08:00:42.167Z,1003.79
2023-01-05T08:01:42.339Z,1003.74
2023-01-05T08:02:42.896Z,1003.84
2023-01-05T08:03:42.404Z,1003.83
2023-01-05T08:04:42.678Z,1003.87
2023-01-05T08:05:42.671Z,1003.81
2023-01-05T08:06:42.826Z,1003.86
2023-01-05T08:07:42.952Z,1003.90
2023-01-05T08:08:43.118Z,1003.88
2023-01-05T08:09:43.275Z,1003.89
2023-01-05T08:10:43.349Z,1003.96
2023-01-05T08:11:43.463Z,1003.90
2023-01-05T08:12:43.605Z,1004.06
2023-01-05T08:13:43.842Z,1004.01
2023-01-05T08:14:43.848Z,1004.03
2023-01-05T08:15:50.642Z,1004.15
2023-01-05T08:16:46.205Z,1004.04
2023-01-05T08:17:44.272Z,1004.08
2023-01-05T08:18:44.413Z,1004.22
2023-01-05T08:19:44.628Z,1004.07
2023-01-05T08:20:44.651Z,1004.08
2023-01-05T08:21:44.778Z,1004.29
2023-01-05T08:22:44.915Z,1004.19
2023-01-05T08:23:45.089Z,1004.21
2023-01-05T08:24:45.150Z,1004.22
2023-01-05T08:25:45.184Z,1004.13
2023-01-05T08:26:45.327Z,1004.17
2023-01-05T08:27:45.413Z,1004.28
2023-01-05T08:28:45.563Z,1004.31
2023-01-05T08:29:45.684Z,1004.24
2023-01-05T08:30:45.831Z,1004.30
2023-01-05T08:31:46.101Z,1004.25
2023-01-05T08:32:46.015Z,1004.08
2023-01-05T08:33:46.129Z,1004.26
2023-01-05T08:34:51.921Z,1004.33
2023-01-05T08:35:47.356Z,1004.28
2023-01-05T08:36:46.498Z,1004.31
2023-01-05T08:37:46.628Z,1004.26
2023-01-05T08:38:46.799Z,1004.22
2023-01-05T08:39:46.807Z,1004.28
2023-01-05T08:40:46.928Z,1004.22
2023-01-05T08:41:47.045Z,1004.39
2023-01-05T08:42:47.175Z,1004.40
2023-01-05T08:43:47.310Z,1004.46
2023-01-05T08:44:47.429Z,1004.24
2023-01-05T08:45:47.584Z,1004.34
2023-01-05T08:46:47.666Z,1004.31
2023-01-05T08:47:47.808Z,1004.30
2023-01-05T08:48:47.964Z,1004.35
2023-01-05T08:49:48.076Z,1004.24
2023-01-05T08:50:48.193Z,1004.47
2023-01-05T08:51:48.311Z,1004.37
2023-01-05T08:52:48.436Z,1004.38
2023-01-05T08:53:48.609Z,1004.43
2023-01-05T08:54:48.738Z,1004.47
2023-01-05T08:55:49.000Z,1004.36
2023-01-05T08:56:48.911Z,1004.17
2023-01-05T08:57:49.071Z,1004.45
2023-01-05T08:58:49.212Z,1004.29
2023-01-05T08:59:49.554Z,1004.31
2023-01-05T09:00:49.466Z,1004.49
2023-01-05T09:01:49.598Z,1004.28
2023-01-05T09:02:49.926Z,1004.41
2023-01-05T09:03:49.827Z,1004.41
2023-01-05T09:04:50.116Z,1004.33
2023-01-05T09:05:50.030Z,1004.53
2023-01-05T09:06:50.193Z,1004.73
2023-01-05T09:07:50.275Z,1004.43
2023-01-05T09:08:50.412Z,1004.51
2023-01-05T09:09:50.517Z,1004.49
2023-01-05T09:10:50.612Z,1004.57
2023-01-05T09:11:50.785Z,1004.59
2023-01-05T09:12:50.774Z,1004.57
2023-01-05T09:13:50.898Z,1004.56
2023-01-05T09:14:50.984Z,1004.57
2023-01-05T09:15:51.063Z,1004.61
2023-01-05T09:17:08.507Z,1004.61
2023-01-05T09:17:52.298Z,1004.74
2023-01-05T09:18:51.329Z,1004.66
2023-01-05T09:19:51.413Z,1004.57
2023-01-05T09:20:51.520Z,1004.56
2023-01-05T09:21:51.605Z,1004.55
2023-01-05T09:22:51.710Z,1004.76
2023-01-05T09:23:51.847Z,1004.64
2023-01-05T09:24:51.844Z,1004.84
2023-01-05T09:25:51.950Z,1004.77
2023-01-05T09:26:52.079Z,1004.89
2023-01-05T09:27:52.172Z,1004.69
2023-01-05T09:28:52.320Z,1004.82
2023-01-05T09:29:52.322Z,1004.83
2023-01-05T09:30:52.487Z,1004.86
2023-01-05T09:31:52.467Z,1004.96
2023-01-05T09:32:52.878Z,1004.82
2023-01-05T09:33:52.686Z,1004.87
2023-01-05T09:34:52.755Z,1004.91
2023-01-05T09:35:52.843Z,1004.91
2023-01-05T09:36:52.921Z,1005.08
2023-01-05T09:37:59.992Z,1004.94
2023-01-05T09:38:53.221Z,1004.95
2023-01-05T09:39:55.733Z,1005.03
2023-01-05T09:40:53.135Z,1004.95
2023-01-05T09:41:53.210Z,1004.98
2023-01-05T09:42:53.266Z,1004.95
2023-01-05T09:43:53.371Z,1004.83
2023-01-05T09:44:58.642Z,1005.10
2023-01-05T09:45:54.613Z,1005.10
2023-01-05T09:46:53.575Z,1005.21
2023-01-05T09:47:53.664Z,1005.22
2023-01-05T09:48:53.728Z,1005.21
2023-01-05T09:49:53.811Z,1005.17
2023-01-05T09:50:53.877Z,1005.23
2023-01-05T09:51:53.962Z,1005.12
2023-01-05T09:52:54.040Z,1005.27
2023-01-05T09:53:54.134Z,1005.25
2023-01-05T09:54:54.234Z,1005.21
2023-01-05T09:55:54.302Z,1005.16
2023-01-05T09:57:10.749Z,1005.26
2023-01-05T09:57:55.417Z,1005.23
2023-01-05T09:58:54.526Z,1005.27
2023-01-05T09:59:54.598Z,1005.23
2023-01-05T10:00:54.736Z,1005.29
2023-01-05T10:01:54.846Z,1005.38
2023-01-05T10:02:54.957Z,1005.21
2023-01-05T10:04:03.475Z,1005.37
2023-01-05T10:04:56.214Z,1005.45
2023-01-05T10:05:55.154Z,1005.33
2023-01-05T10:06:55.215Z,1005.31
2023-01-05T10:07:55.364Z,1005.23
2023-01-05T10:08:55.326Z,1005.38
2023-01-05T10:09:55.406Z,1005.40
2023-01-05T10:10:55.484Z,1005.46
2023-01-05T10:11:55.564Z,1005.52
2023-01-05T10:12:55.656Z,1005.42
2023-01-05T10:13:55.755Z,1005.58
2023-01-05T10:14:55.830Z,1005.53
2023-01-05T10:15:55.974Z,1005.62
2023-01-05T10:17:15.040Z,1005.51
2023-01-05T10:17:56.977Z,1005.59
2023-01-05T10:18:56.090Z,1005.52
2023-01-05T10:19:56.161Z,1005.60
2023-01-05T10:20:56.245Z,1005.70
2023-01-05T10:21:56.353Z,1005.61
2023-01-05T10:22:56.438Z,1005.61
2023-01-05T10:23:56.586Z,1005.56
2023-01-05T10:24:56.668Z,1005.78
2023-01-05T10:25:56.782Z,1005.52
2023-01-05T10:27:24.262Z,1005.43
2023-01-05T10:27:58.039Z,1005.55
2023-01-05T10:28:57.145Z,1005.57
2023-01-05T10:29:57.278Z,1005.73
2023-01-05T10:30:57.397Z,1005.72
2023-01-05T10:31:57.498Z,1005.67
2023-01-05T10:33:22.005Z,1005.73
2023-01-05T10:34:03.411Z,1005.69
2023-01-05T10:34:58.798Z,1005.68
2023-01-05T10:36:04.074Z,1005.74
2023-01-05T10:37:08.394Z,1005.92
2023-01-05T10:37:59.040Z,1005.73
2023-01-05T10:38:58.143Z,1005.81
2023-01-05T10:39:58.241Z,1005.72
2023-01-05T10:40:58.334Z,1005.66
2023-01-05T10:41:58.440Z,1005.78
2023-01-05T10:42:58.559Z,1005.77
2023-01-05T10:43:58.891Z,1005.60
2023-01-05T10:44:58.782Z,1005.71
2023-01-05T10:46:29.860Z,1005.73
2023-01-05T10:47:00.034Z,1005.64
2023-01-05T10:47:59.030Z,1005.76
2023-01-05T10:48:59.157Z,1005.80
2023-01-05T10:49:59.256Z,1005.70
2023-01-05T10:50:59.348Z,1005.70
2023-01-05T10:51:59.464Z,1005.58
2023-01-05T10:52:59.565Z,1005.80
2023-01-05T10:53:59.698Z,1005.82
2023-01-05T10:54:59.777Z,1005.45
2023-01-05T10:55:59.898Z,1005.69
2023-01-05T10:56:59.996Z,1005.79
2023-01-05T10:58:00.132Z,1005.95
2023-01-05T10:59:00.246Z,1005.77
2023-01-05T11:00:00.441Z,1005.81
2023-01-05T11:01:00.444Z,1005.82
2023-01-05T11:02:00.614Z,1005.87
2023-01-05T11:03:00.679Z,1005.72
2023-01-05T11:04:33.892Z,1005.82
2023-01-05T11:05:01.895Z,1005.91
2023-01-05T11:06:00.916Z,1005.82
2023-01-05T11:07:00.996Z,1005.89
2023-01-05T11:08:01.118Z,1005.87
2023-01-05T11:09:01.271Z,1005.76
2023-01-05T11:10:01.287Z,1005.98
2023-01-05T11:11:01.396Z,1005.96
2023-01-05T11:12:01.512Z,1005.87
2023-01-05T11:13:01.606Z,1005.90
2023-01-05T11:14:01.755Z,1005.82
2023-01-05T11:15:01.887Z,1005.71
2023-01-05T11:16:02.145Z,1005.74
2023-01-05T11:17:02.119Z,1005.94
2023-01-05T11:18:02.232Z,1005.93
2023-01-05T11:19:02.343Z,1005.92
2023-01-05T11:20:02.453Z,1005.82
2023-01-05T11:21:02.541Z,1005.94
2023-01-05T11:22:03.029Z,1005.90
2023-01-05T11:23:02.762Z,1005.85
2023-01-05T11:24:02.882Z,1006.09
2023-01-05T11:25:02.971Z,1006.00
2023-01-05T11:26:03.076Z,1006.12
2023-01-05T11:27:03.229Z,1006.03
2023-01-05T11:28:05.328Z,1006.03
2023-01-05T11:29:03.398Z,1006.05
2023-01-05T11:30:03.508Z,1006.01
2023-01-05T11:31:03.649Z,1005.98
2023-01-05T11:32:03.766Z,1006.04
2023-01-05T11:33:03.860Z,1006.03
2023-01-05T11:34:04.020Z,1006.14
2023-01-05T11:35:04.027Z,1006.08
2023-01-05T11:36:04.141Z,1006.06
2023-01-05T11:37:08.193Z,1006.14
2023-01-05T11:38:04.312Z,1006.18
2023-01-05T11:39:04.468Z,1006.23
2023-01-05T11:40:04.502Z,1006.20
2023-01-05T11:41:04.627Z,1006.30
2023-01-05T11:42:04.751Z,1006.24
2023-01-05T11:43:04.849Z,1006.31
2023-01-05T11:44:04.991Z,1006.16
2023-01-05T11:45:05.086Z,1006.24
2023-01-05T11:46:05.256Z,1006.24
2023-01-05T11:47:05.270Z,1006.24
2023-01-05T11:48:05.392Z,1006.31
2023-01-05T11:49:05.513Z,1006.37
2023-01-05T11:50:09.474Z,1006.30
2023-01-05T11:51:05.745Z,1006.22
2023-01-05T11:52:05.874Z,1006.38
2023-01-05T11:53:05.974Z,1006.42
2023-01-05T11:54:06.109Z,1006.46
2023-01-05T11:55:06.206Z,1006.47
2023-01-05T11:56:06.343Z,1006.49
2023-01-05T11:57:06.465Z,1006.35
2023-01-05T11:58:06.587Z,1006.52
2023-01-05T11:59:06.753Z,1006.41
2023-01-05T12:00:06.787Z,1006.56
2023-01-05T12:01:06.910Z,1006.64
2023-01-05T12:02:06.952Z,1006.60
2023-01-05T12:03:07.107Z,1006.64
2023-01-05T12:04:07.223Z,1006.53
2023-01-05T12:05:07.289Z,1006.56
2023-01-05T12:06:07.404Z,1006.64
2023-01-05T12:07:07.528Z,1006.67